Error in temperature decoding of a METAR string

Oct 20, 2014 at 12:57 PM
This METAR string fails:

KALW 200053Z 14004KT 6SM R20/4000VP6000FT HZ CLR 17/11 A2975 RMK AO2 SLP074 T01720106